createdAt,value
2018-06-29T00:00:24.832Z,3.20
2018-06-29T00:02:55.442Z,3.35
2018-06-29T00:05:26.410Z,3.20
2018-06-29T00:07:57.681Z,3.20
2018-06-29T00:10:28.342Z,3.70
2018-06-29T00:12:58.974Z,3.40
2018-06-29T00:15:29.634Z,3.30
2018-06-29T00:18:00.246Z,3.33
2018-06-29T00:20:30.905Z,3.33
2018-06-29T00:23:01.513Z,3.55
2018-06-29T00:25:32.214Z,3.27
2018-06-29T00:28:02.815Z,2.90
2018-06-29T00:30:33.454Z,2.47
2018-06-29T00:33:04.074Z,2.98
2018-06-29T00:35:34.719Z,3.02
2018-06-29T00:38:05.762Z,2.70
2018-06-29T00:40:36.554Z,2.55
2018-06-29T00:43:07.226Z,2.75
2018-06-29T00:45:37.872Z,3.40
2018-06-29T00:48:08.502Z,3.10
2018-06-29T00:50:39.154Z,3.00
2018-06-29T00:53:09.825Z,2.77
2018-06-29T00:55:40.474Z,3.00
2018-06-29T00:58:11.082Z,2.70
2018-06-29T01:00:41.730Z,3.00
2018-06-29T01:03:12.357Z,3.10
2018-06-29T01:05:42.997Z,3.08
2018-06-29T01:08:13.663Z,3.30
2018-06-29T01:10:44.520Z,3.62
2018-06-29T01:13:15.165Z,4.20
2018-06-29T01:15:45.782Z,3.10
2018-06-29T01:18:16.431Z,3.45
2018-06-29T01:20:47.098Z,4.10
2018-06-29T01:23:17.730Z,4.67
2018-06-29T01:25:48.390Z,3.75
2018-06-29T01:28:19.201Z,3.60
2018-06-29T01:30:49.905Z,3.90
2018-06-29T01:33:20.613Z,3.12
2018-06-29T01:35:51.257Z,3.30
2018-06-29T01:38:21.875Z,3.50
2018-06-29T01:40:52.535Z,3.33
2018-06-29T01:43:23.134Z,3.50
2018-06-29T01:45:54.134Z,3.47
2018-06-29T01:48:24.750Z,3.62
2018-06-29T01:50:55.394Z,3.40
2018-06-29T01:53:26.006Z,3.12
2018-06-29T01:55:56.998Z,3.65
2018-06-29T01:58:27.618Z,3.12
2018-06-29T02:00:58.270Z,3.33
2018-06-29T02:03:28.889Z,3.10
2018-06-29T02:05:59.557Z,3.15
2018-06-29T02:08:30.721Z,3.50
2018-06-29T02:11:01.403Z,4.03
2018-06-29T02:13:32.017Z,3.47
2018-06-29T02:16:02.679Z,3.70
2018-06-29T02:18:33.665Z,3.62
2018-06-29T02:21:04.324Z,3.87
2018-06-29T02:23:35.295Z,3.52
2018-06-29T02:26:06.276Z,3.47
2018-06-29T02:28:36.893Z,3.30
2018-06-29T02:31:07.554Z,3.72
2018-06-29T02:33:38.162Z,3.50
2018-06-29T02:36:08.811Z,3.42
2018-06-29T02:38:39.762Z,3.27
2018-06-29T02:41:10.594Z,3.70
2018-06-29T02:43:41.246Z,3.72
2018-06-29T02:46:12.095Z,3.85
2018-06-29T02:48:43.285Z,3.90
2018-06-29T02:51:13.955Z,3.98
2018-06-29T02:53:44.566Z,3.33
2018-06-29T02:56:15.233Z,3.87
2018-06-29T02:58:52.398Z,4.30
2018-06-29T03:01:23.058Z,3.77
2018-06-29T03:03:53.688Z,3.37
2018-06-29T03:06:24.682Z,3.70
2018-06-29T03:08:55.993Z,4.10
2018-06-29T03:11:26.665Z,3.75
2018-06-29T03:13:57.290Z,3.80
2018-06-29T03:16:27.939Z,3.92
2018-06-29T03:18:58.738Z,4.53
2018-06-29T03:21:29.391Z,3.80
2018-06-29T03:24:00.111Z,4.17
2018-06-29T03:26:30.736Z,3.67
2018-06-29T03:29:01.594Z,4.17
2018-06-29T03:31:32.214Z,4.00
2018-06-29T03:34:02.874Z,3.80
2018-06-29T03:36:33.694Z,3.65
2018-06-29T03:39:06.905Z,4.05
2018-06-29T03:41:37.933Z,3.90
2018-06-29T03:44:08.542Z,3.72
2018-06-29T03:46:39.192Z,3.87
2018-06-29T03:49:09.814Z,3.80
2018-06-29T03:51:40.462Z,4.00
2018-06-29T03:54:11.090Z,3.72
2018-06-29T03:56:41.754Z,3.72
2018-06-29T03:59:12.373Z,3.95
2018-06-29T04:01:43.017Z,4.30
2018-06-29T04:04:14.093Z,4.33
2018-06-29T04:06:44.741Z,4.30
2018-06-29T04:09:14.237Z,4.17
2018-06-29T04:11:44.914Z,3.58
2018-06-29T04:14:15.734Z,4.12
2018-06-29T04:16:46.739Z,4.55
2018-06-29T04:19:17.545Z,4.35
2018-06-29T04:21:48.206Z,4.35
2018-06-29T04:24:18.886Z,4.22
2018-06-29T04:26:49.506Z,4.67
2018-06-29T04:29:20.294Z,4.40
2018-06-29T04:31:50.913Z,4.37
2018-06-29T04:34:21.921Z,4.42
2018-06-29T04:36:52.570Z,4.28
2018-06-29T04:39:23.220Z,4.58
2018-06-29T04:41:54.065Z,4.53
2018-06-29T04:44:25.038Z,4.35
2018-06-29T04:46:55.694Z,4.35
2018-06-29T04:49:26.341Z,4.50
2018-06-29T04:51:56.985Z,4.45
2018-06-29T04:54:27.611Z,4.45
2018-06-29T04:56:58.386Z,4.20
2018-06-29T04:59:29.202Z,4.90
2018-06-29T05:01:59.865Z,4.12
2018-06-29T05:04:30.526Z,4.35
2018-06-29T05:07:01.191Z,4.47
2018-06-29T05:09:31.911Z,4.20
2018-06-29T05:12:02.992Z,4.87
2018-06-29T05:14:33.915Z,4.58
2018-06-29T05:17:05.327Z,4.90
2018-06-29T05:19:36.250Z,4.03
2018-06-29T05:22:06.874Z,4.55
2018-06-29T05:24:37.534Z,4.50
2018-06-29T05:27:08.387Z,3.90
2018-06-29T05:29:39.054Z,4.10
2018-06-29T05:32:09.698Z,4.00
2018-06-29T05:34:40.337Z,4.12
2018-06-29T05:37:11.327Z,4.45
2018-06-29T05:39:42.189Z,4.60
2018-06-29T05:42:12.818Z,3.92
2018-06-29T05:44:43.470Z,4.15
2018-06-29T05:47:14.114Z,4.80
2018-06-29T05:49:44.772Z,4.08
2018-06-29T05:52:15.417Z,4.17
2018-06-29T05:54:46.042Z,4.20
2018-06-29T05:57:16.887Z,4.53
2018-06-29T05:59:47.514Z,4.45
2018-06-29T06:02:18.214Z,4.60
2018-06-29T06:04:48.883Z,4.10
2018-06-29T06:07:19.711Z,4.33
2018-06-29T06:09:50.360Z,4.22
2018-06-29T06:12:21.013Z,4.15
2018-06-29T06:14:51.656Z,4.03
2018-06-29T06:17:22.326Z,4.78
2018-06-29T06:20:05.259Z,5.30
2018-06-29T06:22:36.258Z,5.28
2018-06-29T06:25:07.278Z,5.47
2018-06-29T06:27:37.950Z,4.87
2018-06-29T06:30:09.093Z,4.60
2018-06-29T06:32:39.738Z,4.37
2018-06-29T06:35:10.394Z,4.72
2018-06-29T06:37:41.008Z,4.45
2018-06-29T06:40:11.673Z,4.92
2018-06-29T06:42:42.282Z,3.75
2018-06-29T06:45:13.286Z,4.25
2018-06-29T06:47:43.909Z,4.50
2018-06-29T06:50:14.558Z,4.92
2018-06-29T06:52:45.182Z,5.30
2018-06-29T06:55:15.850Z,4.90
2018-06-29T06:57:46.465Z,4.70
2018-06-29T07:00:17.286Z,5.87
2018-06-29T07:02:47.925Z,4.53
2018-06-29T07:05:18.577Z,5.08
2018-06-29T07:07:49.197Z,4.20
2018-06-29T07:10:20.212Z,3.52
2018-06-29T07:12:51.014Z,4.00
2018-06-29T07:15:21.687Z,4.55
2018-06-29T07:17:52.309Z,4.40
2018-06-29T07:20:22.955Z,4.03
2018-06-29T07:22:53.850Z,3.83
2018-06-29T07:25:24.486Z,5.22
2018-06-29T07:27:55.502Z,4.60
2018-06-29T07:30:26.175Z,4.15
2018-06-29T07:32:56.793Z,3.83
2018-06-29T07:35:27.442Z,4.40
2018-06-29T07:37:58.070Z,3.92
2018-06-29T07:40:28.733Z,4.70
2018-06-29T07:42:59.364Z,3.70
2018-06-29T07:45:29.722Z,2.97
2018-06-29T07:48:00.338Z,4.05
2018-06-29T07:50:30.985Z,3.87
2018-06-29T07:53:01.608Z,3.90
2018-06-29T07:55:31.962Z,4.13
2018-06-29T07:58:02.305Z,3.97
2018-06-29T08:00:32.862Z,3.50
2018-06-29T08:03:03.561Z,3.67
2018-06-29T08:05:34.098Z,3.13
2018-06-29T08:08:04.497Z,3.50
2018-06-29T08:10:35.445Z,3.30
2018-06-29T08:13:05.976Z,3.10
2018-06-29T08:15:36.337Z,3.53
2018-06-29T08:18:06.674Z,3.10
2018-06-29T08:20:37.046Z,3.13
2018-06-29T08:23:07.583Z,3.10
2018-06-29T08:25:37.942Z,3.00
2018-06-29T08:28:08.383Z,3.23
2018-06-29T08:30:38.938Z,2.67
2018-06-29T08:33:09.306Z,2.97
2018-06-29T08:35:39.658Z,3.10
2018-06-29T08:38:09.996Z,3.60
2018-06-29T08:40:40.358Z,3.23
2018-06-29T08:43:10.683Z,2.63
2018-06-29T08:45:41.040Z,2.37
2018-06-29T08:48:11.372Z,2.90
2018-06-29T08:50:41.715Z,2.80
2018-06-29T08:53:12.264Z,2.90
2018-06-29T08:55:42.750Z,2.90
2018-06-29T08:58:13.084Z,2.67
2018-06-29T09:00:43.438Z,2.50
2018-06-29T09:03:13.843Z,2.53
2018-06-29T09:05:44.182Z,2.30
2018-06-29T09:08:14.682Z,2.80
2018-06-29T09:10:45.962Z,3.23
2018-06-29T09:13:16.293Z,2.80
2018-06-29T09:15:46.650Z,2.00
2018-06-29T09:18:17.006Z,2.70
2018-06-29T09:20:47.385Z,2.97
2018-06-29T09:23:17.734Z,2.67
2018-06-29T09:25:48.090Z,2.57
2018-06-29T09:28:18.446Z,2.97
2018-06-29T09:30:48.812Z,2.40
2018-06-29T09:33:19.165Z,2.80
2018-06-29T09:35:49.518Z,2.60
2018-06-29T09:38:20.226Z,2.77
2018-06-29T09:40:50.594Z,2.70
2018-06-29T09:43:20.945Z,2.70
2018-06-29T09:45:51.298Z,3.00
2018-06-29T09:48:21.758Z,2.90
2018-06-29T09:50:52.109Z,2.90
2018-06-29T09:53:22.433Z,2.90
2018-06-29T09:55:52.802Z,2.90
2018-06-29T09:58:23.126Z,2.80
2018-06-29T10:00:55.410Z,2.80
2018-06-29T10:03:24.026Z,2.80
2018-06-29T10:05:54.402Z,2.60
2018-06-29T10:08:24.762Z,2.57
2018-06-29T10:10:55.117Z,2.80
2018-06-29T10:13:25.486Z,3.00
2018-06-29T10:15:55.814Z,2.73
2018-06-29T10:18:26.198Z,2.43
2018-06-29T10:20:56.570Z,2.80
2018-06-29T10:23:26.909Z,3.00
2018-06-29T10:25:57.266Z,2.63
2018-06-29T10:28:27.914Z,2.53
2018-06-29T10:30:58.302Z,2.70
2018-06-29T10:33:28.626Z,2.43
2018-06-29T10:35:59.045Z,2.27
2018-06-29T10:38:29.526Z,2.50
2018-06-29T10:40:59.875Z,2.70
2018-06-29T10:43:30.194Z,2.60
2018-06-29T10:46:00.557Z,3.00
2018-06-29T10:48:31.433Z,2.87
2018-06-29T10:51:01.789Z,2.73
2018-06-29T10:53:32.122Z,2.60
2018-06-29T10:56:02.481Z,3.17
2018-06-29T10:58:33.044Z,2.57
2018-06-29T11:01:03.581Z,2.80
2018-06-29T11:03:33.942Z,2.17
2018-06-29T11:06:04.614Z,2.30
2018-06-29T11:08:34.973Z,2.27
2018-06-29T11:11:05.674Z,2.40
2018-06-29T11:13:36.038Z,2.50
2018-06-29T11:16:06.730Z,2.47
2018-06-29T11:18:37.261Z,2.57
2018-06-29T11:21:07.614Z,2.73
2018-06-29T11:23:37.986Z,2.37
2018-06-29T11:26:08.310Z,2.33
2018-06-29T11:28:38.709Z,2.50
2018-06-29T11:31:09.198Z,2.43
2018-06-29T11:33:39.518Z,2.10
2018-06-29T11:36:09.867Z,2.30
2018-06-29T11:38:40.198Z,2.00
2018-06-29T11:41:10.546Z,2.40
2018-06-29T11:43:40.906Z,2.20
2018-06-29T11:46:11.274Z,2.60
2018-06-29T11:48:41.672Z,2.60
2018-06-29T11:51:12.181Z,2.20
2018-06-29T11:53:42.731Z,2.30
2018-06-29T11:56:13.085Z,2.33
2018-06-29T11:58:43.422Z,3.20
2018-06-29T12:01:13.786Z,2.30
2018-06-29T12:03:44.117Z,2.50
2018-06-29T12:06:14.479Z,2.30
2018-06-29T12:08:44.869Z,2.17
2018-06-29T12:11:15.189Z,2.57
2018-06-29T12:13:45.550Z,2.47
2018-06-29T12:16:15.902Z,2.03
2018-06-29T12:18:46.242Z,2.67
2018-06-29T12:21:16.610Z,2.20
2018-06-29T12:23:46.941Z,2.70
2018-06-29T12:26:17.313Z,2.50
2018-06-29T12:28:47.726Z,2.50
2018-06-29T12:31:18.084Z,2.40
2018-06-29T12:33:48.626Z,2.60
2018-06-29T12:36:19.022Z,2.30
2018-06-29T12:38:49.385Z,2.30
2018-06-29T12:41:19.776Z,2.40
2018-06-29T12:43:50.350Z,2.03
2018-06-29T12:46:20.713Z,2.50
2018-06-29T12:48:51.038Z,2.40
2018-06-29T12:51:21.390Z,2.33
2018-06-29T12:53:52.141Z,2.30
2018-06-29T12:56:22.478Z,2.20
2018-06-29T12:58:52.962Z,2.10
2018-06-29T13:01:23.290Z,2.70
2018-06-29T13:03:53.650Z,2.40
2018-06-29T13:06:23.987Z,1.83
2018-06-29T13:08:54.369Z,2.17
2018-06-29T13:11:24.713Z,2.50
2018-06-29T13:13:55.050Z,2.43
2018-06-29T13:16:25.405Z,2.43
2018-06-29T13:18:55.734Z,2.20
2018-06-29T13:21:26.093Z,2.17
2018-06-29T13:23:56.414Z,2.17
2018-06-29T13:26:26.808Z,2.10
2018-06-29T13:28:57.282Z,1.97
2018-06-29T13:31:28.021Z,1.93
2018-06-29T13:33:58.386Z,2.30
2018-06-29T13:36:28.738Z,2.00
2018-06-29T13:38:59.097Z,1.73
2018-06-29T13:41:29.681Z,2.03
2018-06-29T13:44:00.102Z,1.60
2018-06-29T13:46:30.585Z,2.13
2018-06-29T13:49:00.915Z,1.93
2018-06-29T13:51:31.265Z,2.20
2018-06-29T13:54:01.598Z,1.80
2018-06-29T13:56:31.959Z,2.10
2018-06-29T13:59:02.858Z,2.10
2018-06-29T14:01:33.210Z,1.90
2018-06-29T14:04:03.778Z,1.37
2018-06-29T14:06:34.322Z,2.00
2018-06-29T14:09:07.010Z,1.50
2018-06-29T14:11:37.363Z,1.60
2018-06-29T14:14:08.311Z,1.67
2018-06-29T14:16:39.022Z,1.80
2018-06-29T14:19:09.349Z,1.70
2018-06-29T14:21:39.738Z,1.60
2018-06-29T14:24:10.494Z,1.60
2018-06-29T14:26:40.849Z,1.70
2018-06-29T14:29:11.206Z,1.50
2018-06-29T14:31:41.558Z,1.73
2018-06-29T14:34:11.937Z,1.80
2018-06-29T14:36:42.285Z,1.50
2018-06-29T14:39:12.625Z,1.97
2018-06-29T14:41:42.979Z,1.83
2018-06-29T14:44:13.313Z,1.80
2018-06-29T14:46:43.660Z,1.40
2018-06-29T14:49:14.006Z,1.47
2018-06-29T14:51:44.366Z,1.73
2018-06-29T14:54:14.870Z,1.60
2018-06-29T14:56:45.278Z,1.70
2018-06-29T14:59:15.821Z,1.70
2018-06-29T15:01:46.173Z,1.77
2018-06-29T15:04:16.678Z,1.50
2018-06-29T15:06:47.058Z,1.90
2018-06-29T15:09:17.410Z,1.80
2018-06-29T15:11:47.766Z,1.53
2018-06-29T15:14:18.114Z,1.60
2018-06-29T15:16:48.484Z,1.80
2018-06-29T15:19:18.846Z,1.60
2018-06-29T15:21:49.211Z,1.73
2018-06-29T15:24:19.778Z,1.80
2018-06-29T15:26:50.134Z,1.80
2018-06-29T15:29:20.474Z,1.73
2018-06-29T15:31:50.835Z,3.53
2018-06-29T15:34:21.511Z,1.90
2018-06-29T15:36:51.872Z,1.87
2018-06-29T15:39:22.407Z,1.87
2018-06-29T15:41:52.755Z,1.80
2018-06-29T15:44:23.086Z,1.90
2018-06-29T15:46:54.142Z,2.20
2018-06-29T15:49:24.478Z,1.70
2018-06-29T15:51:54.830Z,1.90
2018-06-29T15:54:25.352Z,1.90
2018-06-29T15:56:55.925Z,1.80
2018-06-29T15:59:26.258Z,1.90
2018-06-29T16:01:56.641Z,1.97
2018-06-29T16:04:26.967Z,1.50
2018-06-29T16:06:57.666Z,1.60
2018-06-29T16:09:28.371Z,1.70
2018-06-29T16:11:58.727Z,1.93
2018-06-29T16:14:29.058Z,1.80
2018-06-29T16:16:59.569Z,1.83
2018-06-29T16:19:29.909Z,1.80
2018-06-29T16:22:00.622Z,1.60
2018-06-29T16:24:30.971Z,1.63
2018-06-29T16:27:01.329Z,1.70
2018-06-29T16:29:31.732Z,1.50
2018-06-29T16:32:02.258Z,1.90
2018-06-29T16:34:32.970Z,2.20
2018-06-29T16:37:03.298Z,1.60
2018-06-29T16:39:33.663Z,2.00
2018-06-29T16:42:04.006Z,2.10
2018-06-29T16:44:34.746Z,1.80
2018-06-29T16:47:05.277Z,1.90
2018-06-29T16:49:35.999Z,1.83
2018-06-29T16:52:06.378Z,1.90
2018-06-29T16:54:36.713Z,1.90
2018-06-29T16:57:07.436Z,2.10
2018-06-29T16:59:37.756Z,1.80
2018-06-29T17:02:08.130Z,2.00
2018-06-29T17:04:38.533Z,1.93
2018-06-29T17:07:09.197Z,2.20
2018-06-29T17:09:39.815Z,1.80
2018-06-29T17:12:10.201Z,2.03
2018-06-29T17:14:40.738Z,2.00
2018-06-29T17:17:11.117Z,2.00
2018-06-29T17:19:41.490Z,2.20
2018-06-29T17:22:11.802Z,2.13
2018-06-29T17:24:42.266Z,2.47
2018-06-29T17:27:12.608Z,2.10
2018-06-29T17:29:42.969Z,2.10
2018-06-29T17:32:13.641Z,1.80
2018-06-29T17:34:44.022Z,2.10
2018-06-29T17:37:14.427Z,2.50
2018-06-29T17:39:44.782Z,2.00
2018-06-29T17:42:15.159Z,1.67
2018-06-29T17:44:45.522Z,2.00
2018-06-29T17:47:15.923Z,1.60
2018-06-29T17:49:46.637Z,1.90
2018-06-29T17:52:17.329Z,2.10
2018-06-29T17:54:47.701Z,2.20
2018-06-29T17:57:18.038Z,2.00
2018-06-29T17:59:48.805Z,1.97
2018-06-29T18:02:19.290Z,2.30
2018-06-29T18:04:49.650Z,1.80
2018-06-29T18:07:20.046Z,1.93
2018-06-29T18:09:50.438Z,2.10
2018-06-29T18:12:21.450Z,2.23
2018-06-29T18:14:51.854Z,2.13
2018-06-29T18:17:22.174Z,1.70
2018-06-29T18:19:52.534Z,2.20
2018-06-29T18:22:23.218Z,2.00
2018-06-29T18:24:53.602Z,2.33
2018-06-29T18:27:23.969Z,2.00
2018-06-29T18:29:54.370Z,1.97
2018-06-29T18:32:24.702Z,2.00
2018-06-29T18:34:55.050Z,4.17
2018-06-29T18:37:25.389Z,2.50
2018-06-29T18:39:55.941Z,2.20
2018-06-29T18:42:26.288Z,2.30
2018-06-29T18:44:56.828Z,1.87
2018-06-29T18:47:27.178Z,2.57
2018-06-29T18:49:57.537Z,2.30
2018-06-29T18:52:27.874Z,1.90
2018-06-29T18:54:58.235Z,2.10
2018-06-29T18:57:28.566Z,2.33
2018-06-29T18:59:58.927Z,2.60
2018-06-29T19:02:29.286Z,2.07
2018-06-29T19:04:59.646Z,2.20
2018-06-29T19:07:30.338Z,2.03
2018-06-29T19:10:00.741Z,2.30
2018-06-29T19:12:31.098Z,2.23
2018-06-29T19:15:01.474Z,2.23
2018-06-29T19:17:32.149Z,2.97
2018-06-29T19:20:02.523Z,2.30
2018-06-29T19:22:33.086Z,2.10
2018-06-29T19:25:03.442Z,2.33
2018-06-29T19:27:33.802Z,3.30
2018-06-29T19:30:04.814Z,2.70
2018-06-29T19:32:35.145Z,2.83
2018-06-29T19:35:05.541Z,2.60
2018-06-29T19:37:35.874Z,2.13
2018-06-29T19:40:06.594Z,2.40
2018-06-29T19:42:36.977Z,2.10
2018-06-29T19:45:07.342Z,2.30
2018-06-29T19:47:37.877Z,2.63
2018-06-29T19:50:08.282Z,2.30
2018-06-29T19:52:38.630Z,2.30
2018-06-29T19:55:09.038Z,2.47
2018-06-29T19:57:39.361Z,2.17
2018-06-29T20:00:09.713Z,2.40
2018-06-29T20:02:40.078Z,2.30
2018-06-29T20:05:10.464Z,2.27
2018-06-29T20:07:41.005Z,2.70
2018-06-29T20:10:11.455Z,2.40
2018-06-29T20:12:41.789Z,2.67
2018-06-29T20:15:14.042Z,2.40
2018-06-29T20:17:44.433Z,2.17
2018-06-29T20:20:14.821Z,2.17
2018-06-29T20:22:45.381Z,2.60
2018-06-29T20:25:15.740Z,2.57
2018-06-29T20:27:46.123Z,2.70
2018-06-29T20:30:16.503Z,2.80
2018-06-29T20:32:46.870Z,2.97
2018-06-29T20:35:17.238Z,2.87
2018-06-29T20:37:47.611Z,3.10
2018-06-29T20:40:17.969Z,2.70
2018-06-29T20:42:48.650Z,2.57
2018-06-29T20:45:19.015Z,2.23
2018-06-29T20:47:49.713Z,2.53
2018-06-29T20:50:20.436Z,2.90
2018-06-29T20:52:50.761Z,2.37
2018-06-29T20:55:21.466Z,2.50
2018-06-29T20:57:51.803Z,3.00
2018-06-29T21:00:22.158Z,2.80
2018-06-29T21:02:52.492Z,2.83
2018-06-29T21:05:23.060Z,2.90
2018-06-29T21:07:53.409Z,2.37
2018-06-29T21:10:24.354Z,2.77
2018-06-29T21:12:55.030Z,2.83
2018-06-29T21:15:25.749Z,2.73
2018-06-29T21:17:56.537Z,3.07
2018-06-29T21:20:27.016Z,3.17
2018-06-29T21:22:57.382Z,2.57
2018-06-29T21:25:27.734Z,2.67
2018-06-29T21:27:58.061Z,2.63
2018-06-29T21:30:28.414Z,3.10
2018-06-29T21:32:58.944Z,3.30
2018-06-29T21:35:29.323Z,3.17
2018-06-29T21:38:00.011Z,3.20
2018-06-29T21:40:31.166Z,3.47
2018-06-29T21:43:01.498Z,3.10
2018-06-29T21:45:31.849Z,3.27
2018-06-29T21:48:02.209Z,3.67
2018-06-29T21:50:32.553Z,3.50
2018-06-29T21:53:03.233Z,3.27
2018-06-29T21:55:33.945Z,3.10
2018-06-29T21:58:04.485Z,3.03
2018-06-29T22:00:42.325Z,3.30
2018-06-29T22:03:14.002Z,3.27
2018-06-29T22:05:44.362Z,3.10
2018-06-29T22:08:14.690Z,3.40
2018-06-29T22:10:45.090Z,3.00
2018-06-29T22:13:15.458Z,2.70
2018-06-29T22:15:45.859Z,3.30
2018-06-29T22:18:16.266Z,3.50
2018-06-29T22:20:47.374Z,3.20
2018-06-29T22:23:17.739Z,3.30
2018-06-29T22:25:48.057Z,3.00
2018-06-29T22:28:18.757Z,3.12
2018-06-29T22:30:49.461Z,2.90
2018-06-29T22:33:19.777Z,2.97
2018-06-29T22:35:50.422Z,3.22
2018-06-29T22:38:21.056Z,3.27
2018-06-29T22:40:51.418Z,3.57
2018-06-29T22:43:22.038Z,3.10
2018-06-29T22:45:52.396Z,3.40
2018-06-29T22:48:23.973Z,3.60
2018-06-29T22:50:54.649Z,3.52
2018-06-29T22:53:25.270Z,3.37
2018-06-29T22:55:55.627Z,2.90
2018-06-29T22:58:26.245Z,3.87
2018-06-29T23:00:56.890Z,3.50
2018-06-29T23:03:32.973Z,3.10
2018-06-29T23:06:03.987Z,3.17
2018-06-29T23:08:34.613Z,3.00
2018-06-29T23:11:05.255Z,2.95
2018-06-29T23:13:36.242Z,3.33
2018-06-29T23:16:07.310Z,3.55
2018-06-29T23:18:38.270Z,3.30
2018-06-29T23:21:09.256Z,3.35
2018-06-29T23:23:41.070Z,3.83
2018-06-29T23:26:11.716Z,3.50
2018-06-29T23:28:42.578Z,3.77
2018-06-29T23:31:13.198Z,3.58
2018-06-29T23:33:43.846Z,3.60
2018-06-29T23:36:14.454Z,3.40
2018-06-29T23:38:45.638Z,3.37
2018-06-29T23:41:16.270Z,3.70
2018-06-29T23:43:46.922Z,3.47
2018-06-29T23:46:17.588Z,3.85
2018-06-29T23:48:48.227Z,3.60
2018-06-29T23:51:18.854Z,3.30
2018-06-29T23:53:49.506Z,3.62
2018-06-29T23:56:20.147Z,3.90
2018-06-29T23:58:50.800Z,3.35
